​ ​

Форум клана ЧПУшников

Информация о пользователе

Привет, Гость! Войдите или зарегистрируйтесь.


Вы здесь » Форум клана ЧПУшников » Лазерные станки


Лазерные станки

Тем 1 страница 80 из 642

Тема Ответов Просмотров Последнее сообщение
1 Важно: Подскажите новичку 4  Kula  [ 1 2 3  9 ]
818 20102 Вчера 11:10:10  botslim
2 Важно: Фото готовых работ выполненных на лазере 2  Администратор  [ 1 2 3  10 ]
907 71176 20-05-2021 13:54:11  Dark Knight
172 10194 22-06-2020 15:49:13  Vera
13 192 Вчера 21:31:09  Valera5609
2 47 21-07-2021 17:27:24  maks11
1 44 17-07-2021 12:57:11  Valera5609
1 48 17-07-2021 12:50:52  Valera5609
4 318 14-07-2021 07:18:08  Вассс
0 49 25-06-2021 09:44:27  Виктор2204
4 178 04-06-2021 15:09:22  AndreyV
1 77 25-05-2021 19:00:36  Valera5609
197 8717 18-05-2021 09:24:28  garich
0 73 10-05-2021 08:37:38  Sanana
24 10430 26-04-2021 12:47:19  brainmo
95 14627 21-04-2021 16:00:12  Умняшка
107 6764 21-04-2021 11:09:49  Siga
39 3244 20-04-2021 21:08:30  Valera5609
192 6095 20-04-2021 12:54:35  Prisrak
239 26367 19-04-2021 10:20:09  Kinetic
3 111 15-04-2021 12:48:55  су-24
348 38710 10-04-2021 19:39:34  Jek44
6 153 02-04-2021 15:14:00  Valera5609
23 LaserCAD  Valentin25
10 608 01-04-2021 16:02:13  Сергей Одесса
24 Нужна помощь специалистов!  Мастер на все руки
31 1606 29-03-2021 12:18:15  Владимирская?
25 ortur laser master2-20w  Александр Сихаев
7 203 27-03-2021 21:25:23  Valera5609
1 68 24-03-2021 21:35:31  SNS
1 75 24-03-2021 16:56:07  Radiovolna
0 83 23-03-2021 13:17:34  headbI4
0 92 21-03-2021 13:18:28  headbI4
143 16407 16-03-2021 16:57:36  Valera5609
12 327 15-03-2021 23:02:45  ЮгРФ
32 выбор компрессора  ecto  [ 1 2 3 4 ]
376 16552 15-03-2021 22:39:49  ЮгРФ
2 77 15-03-2021 20:28:32  Rilov
0 117 15-03-2021 19:40:08  lazukin vlad
1 63 14-03-2021 20:10:46  3aBp
23 374 12-03-2021 17:17:15  Valera5609
3 92 10-03-2021 20:42:04  Valera5609
3 133 07-03-2021 22:42:59  Valera5609
349 21316 06-03-2021 02:16:05  CNCshnick
15 202 28-02-2021 05:46:23  Dark Knight
2 86 25-02-2021 23:08:23  комса45
42 AutoLaser и TL-403CB  SmileCat  [ 1 2 ]
174 6829 25-02-2021 18:48:56  musicman3
0 69 25-02-2021 13:02:09  meglauk
0 76 22-02-2021 04:58:55  Фом
5 314 18-02-2021 13:15:29  ydav75
15 447 18-02-2021 12:19:55  ydav75
47 RDworks и Autocad  Nimrod94
4 118 12-02-2021 13:43:46  Valera5609
3 125 10-02-2021 19:08:26  agronom_26
248 34136 05-02-2021 17:50:48  Valera5609
7 156 02-02-2021 09:40:03  Dark Night
3 103 28-01-2021 12:04:03  Valera5609
52 Вопрос по рдворкс  Тимур Гильманов
4 198 26-01-2021 09:54:53  AlexiAlexiAlexi
19 1104 26-01-2021 01:37:16  AlexiAlexiAlexi
22 780 25-01-2021 13:20:58  DeniskaUSSR
10 305 19-01-2021 09:06:39  Silvermilenium_
56 Нужен совет  AlekssnderKuznetsov
15 236 16-01-2021 17:34:08  Valera5609
0 59 22-12-2020 22:53:47  nuriiix
2 139 18-12-2020 00:32:20  Kusss
3 174 13-12-2020 16:01:45  Жмурик
0 96 13-12-2020 13:16:01  Michelinbrat
5 514 10-12-2020 02:03:50  bart68rus
13 1306 08-12-2020 21:04:21  Valera5609
51 2474 08-12-2020 12:49:37  Alex_UnDeR
12 710 07-12-2020 11:04:01  Valera5609
29 391 03-12-2020 21:35:55  anvaleriya
3 107 02-12-2020 16:00:09  Outsider
72 1668 02-12-2020 13:00:09  Kuz
68 Trocen vs RUIDA  ptolik
12 1531 27-11-2020 16:28:06  Cergio
4 314 27-11-2020 15:35:42  CNCshnick
3 159 27-11-2020 03:12:56  CNCshnick
71 RDWorksV8 в CorelDRAW X8  bartilord  [ 1 2 ]
174 17626 27-11-2020 00:37:40  djbratislav
11 122 22-11-2020 15:06:45  Valera5609
1 114 19-11-2020 12:59:21  ilya37rus
1 120 19-11-2020 09:30:35  RaysLightsaber
105 7042 17-11-2020 22:18:53  Valera5609
1 130 16-11-2020 05:17:54  Олександр Га Столяр
1 141 15-11-2020 15:20:17  Дмитрий Шестак
3 523 15-11-2020 15:17:35  Дмитрий Шестак
9 157 09-11-2020 18:45:49  pro100informatika
6 241 08-11-2020 03:54:35  CNCshnick

Вы здесь » Форум клана ЧПУшников » Лазерные станки